sensor_id;sensor_type;location;lat;lon;timestamp;pressure;altitude;pressure_sealevel;temperature;humidity
48358;BME280;41929;51.478;-0.026;2022-12-07T00:00:48;78971.22;;;-143.00;100.00
48358;BME280;41929;51.478;-0.026;2022-12-07T00:03:13;78965.28;;;-143.00;100.00
48358;BME280;41929;51.478;-0.026;2022-12-07T00:05:39;78963.31;;;-143.00;100.00
48358;BME280;41929;51.478;-0.026;2022-12-07T00:08:04;78961.34;;;-143.00;100.00
48358;BME280;41929;51.478;-0.026;2022-12-07T00:10:29;78949.50;;;-143.00;100.00
48358;BME280;41929;51.478;-0.026;2022-12-07T00:12:54;78951.47;;;-143.00;100.00
48358;BME280;41929;51.478;-0.026;2022-12-07T00:15:20;78951.47;;;-143.00;100.00
48358;BME280;41929;51.478;-0.026;2022-12-07T00:17:45;78947.53;;;-143.00;100.00
48358;BME280;41929;51.478;-0.026;2022-12-07T00:20:10;78963.31;;;-143.00;100.00
48358;BME280;41929;51.478;-0.026;2022-12-07T00:22:36;78971.22;;;-143.00;100.00
48358;BME280;41929;51.478;-0.026;2022-12-07T00:25:01;78973.19;;;-143.00;100.00
48358;BME280;41929;51.478;-0.026;2022-12-07T00:27:27;78983.06;;;-143.00;100.00
48358;BME280;41929;51.478;-0.026;2022-12-07T00:29:52;78987.00;;;-143.00;100.00
48358;BME280;41929;51.478;-0.026;2022-12-07T00:32:17;78992.94;;;-143.00;100.00
48358;BME280;41929;51.478;-0.026;2022-12-07T00:34:43;78996.88;;;-143.00;100.00
48358;BME280;41929;51.478;-0.026;2022-12-07T00:37:08;78985.03;;;-143.00;100.00
48358;BME280;41929;51.478;-0.026;2022-12-07T00:39:33;78969.25;;;-143.00;100.00
48358;BME280;41929;51.478;-0.026;2022-12-07T00:41:59;78963.31;;;-143.00;100.00
48358;BME280;41929;51.478;-0.026;2022-12-07T00:44:24;78953.44;;;-143.00;100.00
48358;BME280;41929;51.478;-0.026;2022-12-07T00:46:49;78939.63;;;-143.00;100.00
48358;BME280;41929;51.478;-0.026;2022-12-07T00:49:15;78937.66;;;-143.00;100.00
48358;BME280;41929;51.478;-0.026;2022-12-07T00:51:40;78931.75;;;-143.00;100.00
48358;BME280;41929;51.478;-0.026;2022-12-07T00:54:05;78931.75;;;-143.00;100.00
48358;BME280;41929;51.478;-0.026;2022-12-07T00:56:31;78927.78;;;-143.00;100.00
48358;BME280;41929;51.478;-0.026;2022-12-07T00:58:58;78921.88;;;-143.00;100.00
48358;BME280;41929;51.478;-0.026;2022-12-07T01:01:26;78919.91;;;-143.00;100.00
48358;BME280;41929;51.478;-0.026;2022-12-07T01:03:52;78935.69;;;-143.00;100.00
48358;BME280;41929;51.478;-0.026;2022-12-07T01:06:19;78945.56;;;-143.00;100.00
48358;BME280;41929;51.478;-0.026;2022-12-07T01:08:44;78951.47;;;-143.00;100.00
48358;BME280;41929;51.478;-0.026;2022-12-07T01:11:14;78957.41;;;-143.00;100.00
48358;BME280;41929;51.478;-0.026;2022-12-07T01:13:39;78943.59;;;-143.00;100.00
48358;BME280;41929;51.478;-0.026;2022-12-07T01:16:06;78947.53;;;-143.00;100.00
48358;BME280;41929;51.478;-0.026;2022-12-07T01:18:34;78951.47;;;-143.00;100.00
48358;BME280;41929;51.478;-0.026;2022-12-07T01:21:15;78941.63;;;-143.00;100.00
48358;BME280;41929;51.478;-0.026;2022-12-07T01:23:42;78925.81;;;-143.00;100.00
48358;BME280;41929;51.478;-0.026;2022-12-07T01:26:11;78913.97;;;-143.00;100.00
48358;BME280;41929;51.478;-0.026;2022-12-07T01:28:37;78912.00;;;-143.00;100.00
48358;BME280;41929;51.478;-0.026;2022-12-07T01:31:08;78913.97;;;-143.00;100.00
48358;BME280;41929;51.478;-0.026;2022-12-07T01:33:37;78912.00;;;-143.00;100.00
48358;BME280;41929;51.478;-0.026;2022-12-07T01:36:05;78915.94;;;-143.00;100.00
48358;BME280;41929;51.478;-0.026;2022-12-07T01:38:31;78931.75;;;-143.00;100.00
48358;BME280;41929;51.478;-0.026;2022-12-07T01:40:57;78943.59;;;-143.00;100.00
48358;BME280;41929;51.478;-0.026;2022-12-07T01:43:24;78951.47;;;-143.00;100.00
48358;BME280;41929;51.478;-0.026;2022-12-07T01:45:50;78955.44;;;-143.00;100.00
48358;BME280;41929;51.478;-0.026;2022-12-07T01:48:18;78967.28;;;-143.00;100.00
48358;BME280;41929;51.478;-0.026;2022-12-07T01:50:48;78969.25;;;-143.00;100.00
48358;BME280;41929;51.478;-0.026;2022-12-07T01:53:16;78977.13;;;-143.00;100.00
48358;BME280;41929;51.478;-0.026;2022-12-07T01:55:44;78983.06;;;-143.00;100.00
48358;BME280;41929;51.478;-0.026;2022-12-07T01:58:12;78977.13;;;-143.00;100.00
48358;BME280;41929;51.478;-0.026;2022-12-07T02:00:38;78969.25;;;-143.00;100.00
48358;BME280;41929;51.478;-0.026;2022-12-07T02:03:26;78961.34;;;-143.00;100.00
48358;BME280;41929;51.478;-0.026;2022-12-07T02:05:53;78965.28;;;-143.00;100.00
48358;BME280;41929;51.478;-0.026;2022-12-07T02:08:19;78965.28;;;-143.00;100.00
48358;BME280;41929;51.478;-0.026;2022-12-07T02:10:45;78963.31;;;-143.00;100.00
48358;BME280;41929;51.478;-0.026;2022-12-07T02:13:22;78963.31;;;-143.00;100.00
48358;BME280;41929;51.478;-0.026;2022-12-07T02:15:55;78957.41;;;-143.00;100.00
48358;BME280;41929;51.478;-0.026;2022-12-07T02:29:19;78912.00;;;-143.00;100.00
48358;BME280;41929;51.478;-0.026;2022-12-07T02:31:59;78906.09;;;-143.00;100.00
48358;BME280;41929;51.478;-0.026;2022-12-07T02:34:37;78902.13;;;-143.00;100.00
48358;BME280;41929;51.478;-0.026;2022-12-07T02:37:12;78904.13;;;-143.00;100.00
48358;BME280;41929;51.478;-0.026;2022-12-07T02:39:46;78904.13;;;-143.00;100.00
48358;BME280;41929;51.478;-0.026;2022-12-07T02:42:18;78902.13;;;-143.00;100.00
48358;BME280;41929;51.478;-0.026;2022-12-07T02:44:48;78902.13;;;-143.00;100.00
48358;BME280;41929;51.478;-0.026;2022-12-07T02:47:15;78888.31;;;-143.00;100.00
48358;BME280;41929;51.478;-0.026;2022-12-07T02:49:42;78892.28;;;-143.00;100.00
48358;BME280;41929;51.478;-0.026;2022-12-07T02:52:08;78894.25;;;-143.00;100.00
48358;BME280;41929;51.478;-0.026;2022-12-07T02:54:34;78888.31;;;-143.00;100.00
48358;BME280;41929;51.478;-0.026;2022-12-07T03:00:09;78898.19;;;-143.00;100.00
48358;BME280;41929;51.478;-0.026;2022-12-07T03:02:42;78900.16;;;-143.00;100.00
48358;BME280;41929;51.478;-0.026;2022-12-07T03:08:15;78892.28;;;-143.00;100.00
48358;BME280;41929;51.478;-0.026;2022-12-07T03:10:54;78892.28;;;-143.00;100.00
48358;BME280;41929;51.478;-0.026;2022-12-07T03:13:41;78872.53;;;-143.00;100.00
48358;BME280;41929;51.478;-0.026;2022-12-07T03:16:19;78860.69;;;-143.00;100.00
48358;BME280;41929;51.478;-0.026;2022-12-07T03:18:54;78848.84;;;-143.00;100.00
48358;BME280;41929;51.478;-0.026;2022-12-07T03:21:27;78842.94;;;-143.00;100.00
48358;BME280;41929;51.478;-0.026;2022-12-07T03:23:58;78837.00;;;-143.00;100.00
48358;BME280;41929;51.478;-0.026;2022-12-07T03:26:31;78840.97;;;-143.00;100.00
48358;BME280;41929;51.478;-0.026;2022-12-07T03:29:00;78846.88;;;-143.00;100.00
48358;BME280;41929;51.478;-0.026;2022-12-07T03:31:31;78842.94;;;-143.00;100.00
48358;BME280;41929;51.478;-0.026;2022-12-07T03:34:07;78844.91;;;-143.00;100.00
48358;BME280;41929;51.478;-0.026;2022-12-07T03:37:10;78854.78;;;-143.00;100.00
48358;BME280;41929;51.478;-0.026;2022-12-07T03:42:24;78854.78;;;-143.00;100.00
48358;BME280;41929;51.478;-0.026;2022-12-07T03:44:50;78858.72;;;-143.00;100.00
48358;BME280;41929;51.478;-0.026;2022-12-07T03:47:32;78858.72;;;-143.00;100.00
48358;BME280;41929;51.478;-0.026;2022-12-07T03:50:06;78864.63;;;-143.00;100.00
48358;BME280;41929;51.478;-0.026;2022-12-07T03:52:40;78878.44;;;-143.00;100.00
48358;BME280;41929;51.478;-0.026;2022-12-07T03:55:25;78878.44;;;-143.00;100.00
48358;BME280;41929;51.478;-0.026;2022-12-07T03:57:55;78884.38;;;-143.00;100.00
48358;BME280;41929;51.478;-0.026;2022-12-07T04:00:22;78878.44;;;-143.00;100.00
48358;BME280;41929;51.478;-0.026;2022-12-07T04:02:47;78876.47;;;-143.00;100.00
48358;BME280;41929;51.478;-0.026;2022-12-07T04:05:16;78876.47;;;-143.00;100.00
48358;BME280;41929;51.478;-0.026;2022-12-07T04:07:41;78856.75;;;-143.00;100.00
48358;BME280;41929;51.478;-0.026;2022-12-07T04:10:07;78874.50;;;-143.00;100.00
48358;BME280;41929;51.478;-0.026;2022-12-07T04:12:32;78866.63;;;-143.00;100.00
48358;BME280;41929;51.478;-0.026;2022-12-07T04:14:58;78858.72;;;-143.00;100.00
48358;BME280;41929;51.478;-0.026;2022-12-07T04:17:23;78856.75;;;-143.00;100.00
48358;BME280;41929;51.478;-0.026;2022-12-07T04:19:48;78860.69;;;-143.00;100.00
48358;BME280;41929;51.478;-0.026;2022-12-07T04:22:14;78856.75;;;-143.00;100.00
48358;BME280;41929;51.478;-0.026;2022-12-07T04:24:39;78852.78;;;-143.00;100.00
48358;BME280;41929;51.478;-0.026;2022-12-07T04:27:04;78854.78;;;-143.00;100.00
48358;BME280;41929;51.478;-0.026;2022-12-07T04:29:30;78856.75;;;-143.00;100.00
48358;BME280;41929;51.478;-0.026;2022-12-07T04:31:55;78868.59;;;-143.00;100.00
48358;BME280;41929;51.478;-0.026;2022-12-07T04:34:20;78864.63;;;-143.00;100.00
48358;BME280;41929;51.478;-0.026;2022-12-07T04:36:46;78858.72;;;-143.00;100.00
48358;BME280;41929;51.478;-0.026;2022-12-07T04:39:29;78864.63;;;-143.00;100.00
48358;BME280;41929;51.478;-0.026;2022-12-07T04:41:56;78854.78;;;-143.00;100.00
48358;BME280;41929;51.478;-0.026;2022-12-07T04:44:22;78850.81;;;-143.00;100.00
48358;BME280;41929;51.478;-0.026;2022-12-07T04:46:48;78856.75;;;-143.00;100.00
48358;BME280;41929;51.478;-0.026;2022-12-07T04:49:14;78852.78;;;-143.00;100.00
48358;BME280;41929;51.478;-0.026;2022-12-07T04:51:40;78862.66;;;-143.00;100.00
48358;BME280;41929;51.478;-0.026;2022-12-07T04:54:06;78862.66;;;-143.00;100.00
48358;BME280;41929;51.478;-0.026;2022-12-07T04:56:31;78858.72;;;-143.00;100.00
48358;BME280;41929;51.478;-0.026;2022-12-07T04:58:57;78854.78;;;-143.00;100.00
48358;BME280;41929;51.478;-0.026;2022-12-07T05:01:23;78846.88;;;-143.00;100.00
48358;BME280;41929;51.478;-0.026;2022-12-07T05:03:49;78854.78;;;-143.00;100.00
48358;BME280;41929;51.478;-0.026;2022-12-07T05:06:15;78852.78;;;-143.00;100.00
48358;BME280;41929;51.478;-0.026;2022-12-07T05:08:41;78844.91;;;-143.00;100.00
48358;BME280;41929;51.478;-0.026;2022-12-07T05:11:07;78840.97;;;-143.00;100.00
48358;BME280;41929;51.478;-0.026;2022-12-07T05:13:34;78842.94;;;-143.00;100.00
48358;BME280;41929;51.478;-0.026;2022-12-07T05:15:59;78829.13;;;-143.00;100.00
48358;BME280;41929;51.478;-0.026;2022-12-07T05:18:24;78821.22;;;-143.00;100.00
48358;BME280;41929;51.478;-0.026;2022-12-07T05:20:50;78825.16;;;-143.00;100.00
48358;BME280;41929;51.478;-0.026;2022-12-07T05:23:16;78821.22;;;-143.00;100.00
48358;BME280;41929;51.478;-0.026;2022-12-07T05:25:42;78817.28;;;-143.00;100.00
48358;BME280;41929;51.478;-0.026;2022-12-07T05:28:07;78817.28;;;-143.00;100.00
48358;BME280;41929;51.478;-0.026;2022-12-07T05:30:32;78813.31;;;-143.00;100.00
48358;BME280;41929;51.478;-0.026;2022-12-07T05:32:58;78811.34;;;-143.00;100.00
48358;BME280;41929;51.478;-0.026;2022-12-07T05:35:24;78793.59;;;-143.00;100.00
48358;BME280;41929;51.478;-0.026;2022-12-07T05:37:49;78805.44;;;-143.00;100.00
48358;BME280;41929;51.478;-0.026;2022-12-07T05:40:15;78815.28;;;-143.00;100.00
48358;BME280;41929;51.478;-0.026;2022-12-07T05:42:41;78819.25;;;-143.00;100.00
48358;BME280;41929;51.478;-0.026;2022-12-07T05:45:08;78827.13;;;-143.00;100.00
48358;BME280;41929;51.478;-0.026;2022-12-07T05:47:34;78815.28;;;-143.00;100.00
48358;BME280;41929;51.478;-0.026;2022-12-07T05:49:59;78815.28;;;-143.00;100.00
48358;BME280;41929;51.478;-0.026;2022-12-07T05:52:24;78813.31;;;-143.00;100.00
48358;BME280;41929;51.478;-0.026;2022-12-07T05:54:51;78817.28;;;-143.00;100.00
48358;BME280;41929;51.478;-0.026;2022-12-07T05:57:16;78813.31;;;-143.00;100.00
48358;BME280;41929;51.478;-0.026;2022-12-07T05:59:42;78805.44;;;-143.00;100.00
48358;BME280;41929;51.478;-0.026;2022-12-07T06:02:11;78801.47;;;-143.00;100.00
48358;BME280;41929;51.478;-0.026;2022-12-07T06:04:40;78797.53;;;-143.00;100.00
48358;BME280;41929;51.478;-0.026;2022-12-07T06:07:06;78801.47;;;-143.00;100.00
48358;BME280;41929;51.478;-0.026;2022-12-07T06:09:32;78797.53;;;-143.00;100.00
48358;BME280;41929;51.478;-0.026;2022-12-07T06:11:58;78813.31;;;-143.00;100.00
48358;BME280;41929;51.478;-0.026;2022-12-07T06:14:42;78813.31;;;-143.00;100.00
48358;BME280;41929;51.478;-0.026;2022-12-07T06:17:09;78801.47;;;-143.00;100.00
48358;BME280;41929;51.478;-0.026;2022-12-07T06:19:35;78811.34;;;-143.00;100.00
48358;BME280;41929;51.478;-0.026;2022-12-07T06:22:00;78811.34;;;-143.00;100.00
48358;BME280;41929;51.478;-0.026;2022-12-07T06:24:26;78797.53;;;-143.00;100.00
48358;BME280;41929;51.478;-0.026;2022-12-07T06:26:51;78791.63;;;-143.00;100.00
48358;BME280;41929;51.478;-0.026;2022-12-07T06:29:17;78785.69;;;-143.00;100.00
48358;BME280;41929;51.478;-0.026;2022-12-07T06:31:43;78797.53;;;-143.00;100.00
48358;BME280;41929;51.478;-0.026;2022-12-07T06:34:11;78795.56;;;-143.00;100.00
48358;BME280;41929;51.478;-0.026;2022-12-07T06:36:37;78793.59;;;-143.00;100.00
48358;BME280;41929;51.478;-0.026;2022-12-07T06:39:03;78791.63;;;-143.00;100.00
48358;BME280;41929;51.478;-0.026;2022-12-07T06:41:29;78795.56;;;-143.00;100.00
48358;BME280;41929;51.478;-0.026;2022-12-07T06:43:54;78801.47;;;-143.00;100.00
48358;BME280;41929;51.478;-0.026;2022-12-07T06:46:20;78801.47;;;-143.00;100.00
48358;BME280;41929;51.478;-0.026;2022-12-07T06:48:45;78813.31;;;-143.00;100.00
48358;BME280;41929;51.478;-0.026;2022-12-07T06:51:11;78817.28;;;-143.00;100.00
48358;BME280;41929;51.478;-0.026;2022-12-07T06:53:37;78805.44;;;-143.00;100.00
48358;BME280;41929;51.478;-0.026;2022-12-07T06:56:03;78801.47;;;-143.00;100.00
48358;BME280;41929;51.478;-0.026;2022-12-07T06:58:28;78793.59;;;-143.00;100.00
48358;BME280;41929;51.478;-0.026;2022-12-07T07:00:54;78805.44;;;-143.00;100.00
48358;BME280;41929;51.478;-0.026;2022-12-07T07:03:19;78797.53;;;-143.00;100.00
48358;BME280;41929;51.478;-0.026;2022-12-07T07:05:45;78805.44;;;-143.00;100.00
48358;BME280;41929;51.478;-0.026;2022-12-07T07:08:11;78797.53;;;-143.00;100.00
48358;BME280;41929;51.478;-0.026;2022-12-07T07:10:37;78807.41;;;-143.00;100.00
48358;BME280;41929;51.478;-0.026;2022-12-07T07:13:02;78801.47;;;-143.00;100.00
48358;BME280;41929;51.478;-0.026;2022-12-07T07:15:28;78803.47;;;-143.00;100.00
48358;BME280;41929;51.478;-0.026;2022-12-07T07:17:53;78793.59;;;-143.00;100.00
48358;BME280;41929;51.478;-0.026;2022-12-07T07:20:19;78797.53;;;-143.00;100.00
48358;BME280;41929;51.478;-0.026;2022-12-07T07:22:44;78817.28;;;-143.00;100.00
48358;BME280;41929;51.478;-0.026;2022-12-07T07:25:09;78811.34;;;-143.00;100.00
48358;BME280;41929;51.478;-0.026;2022-12-07T07:27:35;78821.22;;;-143.00;100.00
48358;BME280;41929;51.478;-0.026;2022-12-07T07:30:00;78811.34;;;-143.00;100.00
48358;BME280;41929;51.478;-0.026;2022-12-07T07:32:26;78813.31;;;-143.00;100.00
48358;BME280;41929;51.478;-0.026;2022-12-07T07:34:51;78821.22;;;-143.00;100.00
48358;BME280;41929;51.478;-0.026;2022-12-07T07:37:16;78821.22;;;-143.00;100.00
48358;BME280;41929;51.478;-0.026;2022-12-07T07:39:42;78817.28;;;-143.00;100.00
48358;BME280;41929;51.478;-0.026;2022-12-07T07:42:07;78821.22;;;-143.00;100.00
48358;BME280;41929;51.478;-0.026;2022-12-07T07:44:33;78819.25;;;-143.00;100.00
48358;BME280;41929;51.478;-0.026;2022-12-07T07:46:59;78823.19;;;-143.00;100.00
48358;BME280;41929;51.478;-0.026;2022-12-07T07:49:25;78801.47;;;-143.00;100.00
48358;BME280;41929;51.478;-0.026;2022-12-07T07:51:50;78801.47;;;-143.00;100.00
48358;BME280;41929;51.478;-0.026;2022-12-07T07:54:16;78805.44;;;-143.00;100.00
48358;BME280;41929;51.478;-0.026;2022-12-07T07:56:41;78815.28;;;-143.00;100.00
48358;BME280;41929;51.478;-0.026;2022-12-07T07:59:06;78825.16;;;-143.00;100.00
48358;BME280;41929;51.478;-0.026;2022-12-07T08:01:32;78825.16;;;-143.00;100.00
48358;BME280;41929;51.478;-0.026;2022-12-07T08:03:57;78813.31;;;-143.00;100.00
48358;BME280;41929;51.478;-0.026;2022-12-07T08:06:23;78807.41;;;-143.00;100.00
48358;BME280;41929;51.478;-0.026;2022-12-07T08:08:48;78825.16;;;-143.00;100.00
48358;BME280;41929;51.478;-0.026;2022-12-07T08:11:13;78825.16;;;-143.00;100.00
48358;BME280;41929;51.478;-0.026;2022-12-07T08:13:38;78833.06;;;-143.00;100.00
48358;BME280;41929;51.478;-0.026;2022-12-07T08:16:06;78833.06;;;-143.00;100.00
48358;BME280;41929;51.478;-0.026;2022-12-07T08:18:37;78838.97;;;-143.00;100.00
48358;BME280;41929;51.478;-0.026;2022-12-07T08:21:04;78842.94;;;-143.00;100.00
48358;BME280;41929;51.478;-0.026;2022-12-07T08:23:31;78850.81;;;-143.00;100.00
48358;BME280;41929;51.478;-0.026;2022-12-07T08:26:08;78872.53;;;-143.00;100.00
48358;BME280;41929;51.478;-0.026;2022-12-07T08:28:34;78868.59;;;-143.00;100.00
48358;BME280;41929;51.478;-0.026;2022-12-07T08:31:00;78856.75;;;-143.00;100.00
48358;BME280;41929;51.478;-0.026;2022-12-07T08:33:26;78860.69;;;-143.00;100.00
48358;BME280;41929;51.478;-0.026;2022-12-07T08:35:52;78860.69;;;-143.00;100.00
48358;BME280;41929;51.478;-0.026;2022-12-07T08:38:19;78842.94;;;-143.00;100.00
48358;BME280;41929;51.478;-0.026;2022-12-07T08:40:52;78842.94;;;-143.00;100.00
48358;BME280;41929;51.478;-0.026;2022-12-07T08:43:18;78844.91;;;-143.00;100.00
48358;BME280;41929;51.478;-0.026;2022-12-07T08:45:43;78840.97;;;-143.00;100.00
48358;BME280;41929;51.478;-0.026;2022-12-07T08:48:11;78819.25;;;-143.00;100.00
48358;BME280;41929;51.478;-0.026;2022-12-07T08:50:38;78813.31;;;-143.00;100.00
48358;BME280;41929;51.478;-0.026;2022-12-07T08:53:05;78797.53;;;-143.00;100.00
48358;BME280;41929;51.478;-0.026;2022-12-07T08:55:33;78803.47;;;-143.00;100.00
48358;BME280;41929;51.478;-0.026;2022-12-07T08:58:00;78781.75;;;-143.00;100.00
48358;BME280;41929;51.478;-0.026;2022-12-07T09:00:27;78793.59;;;-143.00;100.00
48358;BME280;41929;51.478;-0.026;2022-12-07T09:02:53;78781.75;;;-143.00;100.00
48358;BME280;41929;51.478;-0.026;2022-12-07T09:05:19;78787.66;;;-143.00;100.00
48358;BME280;41929;51.478;-0.026;2022-12-07T09:07:47;78809.38;;;-143.00;100.00
48358;BME280;41929;51.478;-0.026;2022-12-07T09:15:13;78797.53;;;-143.00;100.00
48358;BME280;41929;51.478;-0.026;2022-12-07T09:17:38;78817.28;;;-143.00;100.00
48358;BME280;41929;51.478;-0.026;2022-12-07T09:20:05;78789.63;;;-143.00;100.00
48358;BME280;41929;51.478;-0.026;2022-12-07T09:22:31;78787.66;;;-143.00;100.00
48358;BME280;41929;51.478;-0.026;2022-12-07T09:24:59;78781.75;;;-143.00;100.00
48358;BME280;41929;51.478;-0.026;2022-12-07T09:27:25;78805.44;;;-143.00;100.00
48358;BME280;41929;51.478;-0.026;2022-12-07T09:29:50;78785.69;;;-143.00;100.00
48358;BME280;41929;51.478;-0.026;2022-12-07T09:32:15;78781.75;;;-143.00;100.00
48358;BME280;41929;51.478;-0.026;2022-12-07T09:34:41;78777.81;;;-143.00;100.00
48358;BME280;41929;51.478;-0.026;2022-12-07T09:37:06;78769.91;;;-143.00;100.00
48358;BME280;41929;51.478;-0.026;2022-12-07T09:39:32;78775.81;;;-143.00;100.00
48358;BME280;41929;51.478;-0.026;2022-12-07T09:41:59;78732.41;;;-143.00;100.00
48358;BME280;41929;51.478;-0.026;2022-12-07T09:44:27;78722.53;;;-143.00;100.00
48358;BME280;41929;51.478;-0.026;2022-12-07T09:46:53;78687.00;;;-143.00;98.87
48358;BME280;41929;51.478;-0.026;2022-12-07T09:49:21;78602.16;;;-143.00;94.67
48358;BME280;41929;51.478;-0.026;2022-12-07T09:51:48;78539.00;;;-143.00;90.27
48358;BME280;41929;51.478;-0.026;2022-12-07T09:54:24;78398.88;;;-143.00;82.57
48358;BME280;41929;51.478;-0.026;2022-12-07T09:56:49;78321.94;;;-143.00;76.31
48358;BME280;41929;51.478;-0.026;2022-12-07T09:59:18;78268.66;;;-143.00;72.50
48358;BME280;41929;51.478;-0.026;2022-12-07T10:01:45;78308.09;;;-143.00;71.09
48358;BME280;41929;51.478;-0.026;2022-12-07T10:04:15;78298.25;;;-143.00;71.61
48358;BME280;41929;51.478;-0.026;2022-12-07T10:06:42;78256.81;;;-143.00;69.56
48358;BME280;41929;51.478;-0.026;2022-12-07T10:09:12;78246.94;;;-143.00;66.82
48358;BME280;41929;51.478;-0.026;2022-12-07T10:12:07;78168.00;;;-143.00;63.36
48358;BME280;41929;51.478;-0.026;2022-12-07T10:14:36;78136.44;;;-143.00;59.97
48358;BME280;41929;51.478;-0.026;2022-12-07T10:17:02;78126.56;;;-143.00;59.31
48358;BME280;41929;51.478;-0.026;2022-12-07T10:19:42;78140.38;;;-143.00;59.99
48358;BME280;41929;51.478;-0.026;2022-12-07T10:22:16;78138.41;;;-143.00;60.16
48358;BME280;41929;51.478;-0.026;2022-12-07T10:29:52;78106.84;;;-143.00;58.02
48358;BME280;41929;51.478;-0.026;2022-12-07T10:34:43;77978.56;;;-143.00;55.10
48358;BME280;41929;51.478;-0.026;2022-12-07T10:39:54;78075.25;;;-143.00;56.74
48358;BME280;41929;51.478;-0.026;2022-12-07T10:42:25;78027.91;;;-143.00;55.79
48358;BME280;41929;51.478;-0.026;2022-12-07T11:03:25;78150.25;;;-143.00;58.00
48358;BME280;41929;51.478;-0.026;2022-12-07T11:24:19;78438.34;;;-143.00;69.03
48358;BME280;41929;51.478;-0.026;2022-12-07T11:30:08;78513.34;;;-143.00;73.38
48358;BME280;41929;51.478;-0.026;2022-12-07T11:38:10;78509.41;;;-143.00;76.52
48358;BME280;41929;51.478;-0.026;2022-12-07T11:40:37;78473.88;;;-143.00;75.55
48358;BME280;41929;51.478;-0.026;2022-12-07T11:43:26;78442.31;;;-143.00;73.86
48358;BME280;41929;51.478;-0.026;2022-12-07T11:46:06;78434.41;;;-143.00;74.51
48358;BME280;41929;51.478;-0.026;2022-12-07T11:48:50;78422.56;;;-143.00;72.91
48358;BME280;41929;51.478;-0.026;2022-12-07T11:51:20;78400.84;;;-143.00;72.44
48358;BME280;41929;51.478;-0.026;2022-12-07T11:53:58;78436.38;;;-143.00;71.52
48358;BME280;41929;51.478;-0.026;2022-12-07T11:56:26;78452.16;;;-143.00;72.44
48358;BME280;41929;51.478;-0.026;2022-12-07T11:59:29;78465.97;;;-143.00;73.40
48358;BME280;41929;51.478;-0.026;2022-12-07T12:04:40;78462.03;;;-143.00;74.71
48358;BME280;41929;51.478;-0.026;2022-12-07T12:07:15;78434.41;;;-143.00;73.09
48358;BME280;41929;51.478;-0.026;2022-12-07T12:09:51;78434.41;;;-143.00;73.73
48358;BME280;41929;51.478;-0.026;2022-12-07T12:12:36;78462.03;;;-143.00;74.29
48358;BME280;41929;51.478;-0.026;2022-12-07T12:18:45;78464.00;;;-143.00;76.48
48358;BME280;41929;51.478;-0.026;2022-12-07T12:20:52;78426.50;;;-143.00;76.96
48358;BME280;41929;51.478;-0.026;2022-12-07T12:23:24;78436.38;;;-143.00;76.37
48358;BME280;41929;51.478;-0.026;2022-12-07T12:25:54;78430.47;;;-143.00;76.96
48358;BME280;41929;51.478;-0.026;2022-12-07T12:28:52;78422.56;;;-143.00;76.11
48358;BME280;41929;51.478;-0.026;2022-12-07T12:33:48;78398.88;;;-143.00;75.17
48358;BME280;41929;51.478;-0.026;2022-12-07T13:23:29;78201.56;;;-143.00;69.93
48358;BME280;41929;51.478;-0.026;2022-12-07T13:26:14;78201.56;;;-143.00;68.23
48358;BME280;41929;51.478;-0.026;2022-12-07T13:28:49;78219.31;;;-143.00;69.39
48358;BME280;41929;51.478;-0.026;2022-12-07T13:54:58;78276.53;;;-143.00;70.91
48358;BME280;41929;51.478;-0.026;2022-12-07T13:59:52;78308.09;;;-143.00;73.03
48358;BME280;41929;51.478;-0.026;2022-12-07T14:33:14;78296.28;;;-143.00;76.43
48358;BME280;41929;51.478;-0.026;2022-12-07T14:40:51;78319.94;;;-143.00;75.55
48358;BME280;41929;51.478;-0.026;2022-12-07T14:43:18;78331.78;;;-143.00;75.84
48358;BME280;41929;51.478;-0.026;2022-12-07T14:50:54;78345.59;;;-143.00;77.01
48358;BME280;41929;51.478;-0.026;2022-12-07T14:53:26;78353.50;;;-143.00;77.55
48358;BME280;41929;51.478;-0.026;2022-12-07T14:58:28;78375.22;;;-143.00;78.90
48358;BME280;41929;51.478;-0.026;2022-12-07T15:03:56;78383.09;;;-143.00;80.20
48358;BME280;41929;51.478;-0.026;2022-12-07T15:06:21;78394.94;;;-143.00;81.77
48358;BME280;41929;51.478;-0.026;2022-12-07T15:13:57;78432.44;;;-143.00;85.17
48358;BME280;41929;51.478;-0.026;2022-12-07T15:16:37;78442.31;;;-143.00;86.29
48358;BME280;41929;51.478;-0.026;2022-12-07T15:19:05;78444.28;;;-143.00;87.53
48358;BME280;41929;51.478;-0.026;2022-12-07T15:24:05;78460.06;;;-143.00;88.65
48358;BME280;41929;51.478;-0.026;2022-12-07T15:26:30;78465.97;;;-143.00;90.57
48358;BME280;41929;51.478;-0.026;2022-12-07T15:28:56;78471.91;;;-143.00;90.71
48358;BME280;41929;51.478;-0.026;2022-12-07T15:31:22;78471.91;;;-143.00;91.38
48358;BME280;41929;51.478;-0.026;2022-12-07T15:33:47;78481.78;;;-143.00;92.26
48358;BME280;41929;51.478;-0.026;2022-12-07T15:36:21;78489.66;;;-143.00;93.11
48358;BME280;41929;51.478;-0.026;2022-12-07T15:38:47;78495.59;;;-143.00;94.30
48358;BME280;41929;51.478;-0.026;2022-12-07T15:41:13;78505.44;;;-143.00;95.49
48358;BME280;41929;51.478;-0.026;2022-12-07T15:48:41;78505.44;;;-143.00;98.49
48358;BME280;41929;51.478;-0.026;2022-12-07T15:51:07;78511.38;;;-143.00;98.70
48358;BME280;41929;51.478;-0.026;2022-12-07T15:56:09;78501.50;;;-143.00;98.99
48358;BME280;41929;51.478;-0.026;2022-12-07T16:01:15;78517.28;;;-143.00;99.19
48358;BME280;41929;51.478;-0.026;2022-12-07T16:03:41;78527.16;;;-143.00;100.00
48358;BME280;41929;51.478;-0.026;2022-12-07T16:06:07;78525.19;;;-143.00;100.00
48358;BME280;41929;51.478;-0.026;2022-12-07T16:11:08;78533.09;;;-143.00;100.00
48358;BME280;41929;51.478;-0.026;2022-12-07T16:16:12;78533.09;;;-143.00;100.00
48358;BME280;41929;51.478;-0.026;2022-12-07T16:18:38;78552.81;;;-143.00;100.00
48358;BME280;41929;51.478;-0.026;2022-12-07T16:21:04;78570.56;;;-143.00;100.00